Time;durP1;ratioP1;P1;durP2;ratioP2;P2;SDS_P1;SDS_P2;PMS_P1;PMS_P2;Temp;Humidity;BMP_temperature;BMP_pressure;BME280_temperature;BME280_humidity;BME280_pressure;Samples;Min_cycle;Max_cycle;Signal;HPM_P1;HPM_P2
2023/09/19 00:01:20;;;;;;;;;;;;;;;18.88;53.35;100119.38;3127990;28;20058;-72
2023/09/19 00:02:54;;;;;;;;;;;;;;;18.85;53.34;100117.78;3135032;28;19964;-72
2023/09/19 00:04:28;;;;;;;;;;;;;;;18.81;53.44;100109.28;3134759;28;19925;-72
2023/09/19 00:06:00;;;;;;;;;;;;;;;18.80;53.21;100115.47;3138574;28;19925;-72
2023/09/19 00:07:31;;;;;;;;;;;;;;;18.80;53.37;100112.84;3147188;28;19990;-72
2023/09/19 00:09:03;;;;;;;;;;;;;;;18.79;53.36;100113.81;3144857;28;20015;-72
2023/09/19 00:10:34;;;;;;;;;;;;;;;18.74;53.59;100108.03;3134731;28;19925;-73
2023/09/19 00:12:09;;;;;;;;;;;;;;;18.74;53.34;100113.31;3134623;28;20019;-71
2023/09/19 00:13:39;;;;;;;;;;;;;;;18.73;53.51;100116.91;3134421;28;19925;-70
2023/09/19 00:15:11;;;;;;;;;;;;;;;18.68;53.47;100112.88;3131897;28;19995;-70
2023/09/19 00:16:41;;;;;;;;;;;;;;;18.64;53.58;100112.28;3146265;28;19924;-72
2023/09/19 00:18:15;;;;;;;;;;;;;;;18.58;53.65;100115.38;3146725;28;20380;-72
2023/09/19 00:19:46;;;;;;;;;;;;;;;18.57;53.68;100116.31;3147119;28;19940;-74
2023/09/19 00:21:19;;;;;;;;;;;;;;;18.54;53.72;100108.63;3145838;28;19924;-74
2023/09/19 00:22:51;;;;;;;;;;;;;;;18.50;53.46;100108.00;3135539;28;20395;-74
2023/09/19 00:24:23;;;;;;;;;;;;;;;18.51;53.61;100111.47;3131100;28;19963;-74
2023/09/19 00:25:57;;;;;;;;;;;;;;;18.50;53.51;100109.81;3130125;28;20079;-74
2023/09/19 00:27:29;;;;;;;;;;;;;;;18.48;53.57;100109.06;3134055;28;20318;-71
2023/09/19 00:29:05;;;;;;;;;;;;;;;18.50;53.47;100104.53;3134362;28;19987;-71
2023/09/19 00:30:38;;;;;;;;;;;;;;;18.52;53.32;100108.75;3127733;28;19965;-72
2023/09/19 00:32:09;;;;;;;;;;;;;;;18.50;53.31;100105.38;3128223;28;20515;-72
2023/09/19 00:33:40;;;;;;;;;;;;;;;18.50;53.17;100100.09;3134343;28;19929;-71
2023/09/19 00:35:12;;;;;;;;;;;;;;;18.50;53.26;100104.53;3138764;28;19925;-72
2023/09/19 00:36:43;;;;;;;;;;;;;;;18.49;53.21;100106.34;3142696;28;19931;-72
2023/09/19 00:38:16;;;;;;;;;;;;;;;18.50;53.19;100104.53;3131241;28;19933;-72
2023/09/19 00:39:47;;;;;;;;;;;;;;;18.50;53.09;100099.25;3125657;28;20449;-72
2023/09/19 00:41:18;;;;;;;;;;;;;;;18.51;53.06;100101.78;3135597;28;19925;-72
2023/09/19 00:42:50;;;;;;;;;;;;;;;18.52;52.94;100097.38;3141914;28;20541;-72
2023/09/19 00:44:23;;;;;;;;;;;;;;;18.54;52.73;100100.72;3134143;28;19975;-74
2023/09/19 00:45:54;;;;;;;;;;;;;;;18.55;52.89;100097.97;3130493;28;19932;-76
2023/09/19 00:47:26;;;;;;;;;;;;;;;18.58;52.97;100102.19;3134381;28;19929;-75
2023/09/19 00:48:57;;;;;;;;;;;;;;;18.58;52.81;100102.19;3140435;28;20285;-75
2023/09/19 00:50:28;;;;;;;;;;;;;;;18.58;52.76;100096.91;3144407;28;19929;-75
2023/09/19 00:51:59;;;;;;;;;;;;;;;18.58;52.68;100096.91;3146677;28;19925;-75
2023/09/19 00:53:31;;;;;;;;;;;;;;;18.58;52.51;100097.75;3142231;28;19967;-75
2023/09/19 00:55:02;;;;;;;;;;;;;;;18.55;52.71;100100.63;3132219;28;20398;-75
2023/09/19 00:56:34;;;;;;;;;;;;;;;18.55;52.55;100097.97;3136510;28;19924;-74
2023/09/19 00:58:06;;;;;;;;;;;;;;;18.56;52.59;100098.81;3140355;28;19924;-74
2023/09/19 00:59:38;;;;;;;;;;;;;;;18.50;52.50;100088.72;3144254;28;19935;-73
2023/09/19 01:01:11;;;;;;;;;;;;;;;18.54;52.42;100101.53;3126939;28;20004;-74
2023/09/19 01:02:43;;;;;;;;;;;;;;;18.55;52.41;100091.88;3134345;28;19995;-74
2023/09/19 01:04:14;;;;;;;;;;;;;;;18.55;52.53;100092.69;3133989;28;19975;-76
2023/09/19 01:05:45;;;;;;;;;;;;;;;18.55;52.35;100103.25;3134021;28;19936;-75
2023/09/19 01:07:16;;;;;;;;;;;;;;;18.56;52.60;100096.16;3134205;28;19924;-75
2023/09/19 01:08:48;;;;;;;;;;;;;;;18.56;52.42;100104.09;3134378;28;19929;-75
2023/09/19 01:10:20;;;;;;;;;;;;;;;18.54;52.47;100101.53;3134207;28;19994;-75
2023/09/19 01:11:54;;;;;;;;;;;;;;;18.52;52.62;100100.84;3141641;28;19929;-76
2023/09/19 01:13:30;;;;;;;;;;;;;;;18.52;52.44;100097.38;3145257;28;19932;-75
2023/09/19 01:15:07;;;;;;;;;;;;;;;18.50;52.41;100096.63;3143521;28;19924;-76
2023/09/19 01:16:43;;;;;;;;;;;;;;;18.49;52.70;100097.59;3132926;28;19935;-70
2023/09/19 01:18:21;;;;;;;;;;;;;;;18.48;52.50;100093.25;3134028;28;19932;-70
2023/09/19 01:20:04;;;;;;;;;;;;;;;18.47;52.35;100095.06;3145177;28;20011;-70
2023/09/19 01:21:42;;;;;;;;;;;;;;;18.48;52.55;100090.63;3133861;28;19994;-70
2023/09/19 01:23:17;;;;;;;;;;;;;;;18.48;52.52;100090.63;3133933;28;19947;-70
2023/09/19 01:25:04;;;;;;;;;;;;;;;18.46;52.49;100093.38;3145798;28;20369;-70
2023/09/19 01:26:49;;;;;;;;;;;;;;;18.44;52.53;100097.06;3141444;28;20019;-70
2023/09/19 01:28:36;;;;;;;;;;;;;;;18.41;52.64;100085.78;3127147;28;19995;-70
2023/09/19 01:30:11;;;;;;;;;;;;;;;18.38;52.61;100090.47;3123128;28;19925;-70
2023/09/19 01:31:42;;;;;;;;;;;;;;;18.35;52.63;100096.78;3135869;28;20313;-70
2023/09/19 01:33:15;;;;;;;;;;;;;;;18.29;52.87;100091.13;3144809;28;19925;-70
2023/09/19 01:34:47;;;;;;;;;;;;;;;18.24;53.07;100107.25;3133510;28;19941;-71
2023/09/19 01:36:18;;;;;;;;;;;;;;;18.20;53.23;100092.63;3133634;28;20413;-72
2023/09/19 01:37:50;;;;;;;;;;;;;;;18.18;53.10;100095.38;3133920;28;19932;-73
2023/09/19 01:39:21;;;;;;;;;;;;;;;18.16;53.21;100092.03;3144998;28;19928;-72
2023/09/19 01:40:58;;;;;;;;;;;;;;;18.10;53.39;100096.88;3143379;28;19924;-72
2023/09/19 01:42:36;;;;;;;;;;;;;;;18.02;53.35;100100.06;3133789;28;19929;-72
2023/09/19 01:44:11;;;;;;;;;;;;;;;17.93;53.46;100096.28;3144718;28;20310;-73
2023/09/19 01:45:48;;;;;;;;;;;;;;;17.87;53.37;100107.28;3129217;28;20338;-72
2023/09/19 01:47:23;;;;;;;;;;;;;;;17.80;53.51;100100.72;3131944;28;19962;-72
2023/09/19 01:48:59;;;;;;;;;;;;;;;17.72;53.69;100103.88;3144528;28;19947;-72
2023/09/19 01:50:31;;;;;;;;;;;;;;;17.66;53.71;100095.59;3138932;28;19975;-72
2023/09/19 01:52:07;;;;;;;;;;;;;;;17.60;53.89;100088.09;3142983;28;19935;-72
2023/09/19 01:53:43;;;;;;;;;;;;;;;17.54;53.93;100086.75;3134423;28;20016;-72
2023/09/19 01:55:17;;;;;;;;;;;;;;;17.50;53.75;100090.53;3133448;28;19925;-72
2023/09/19 01:56:50;;;;;;;;;;;;;;;17.47;54.09;100090.72;3133569;28;20472;-71
2023/09/19 01:58:26;;;;;;;;;;;;;;;17.40;54.09;100086.84;3131200;28;19929;-71
2023/09/19 02:00:00;;;;;;;;;;;;;;;17.30;54.27;100089.25;3123217;28;19932;-70
2023/09/19 02:01:34;;;;;;;;;;;;;;;17.21;54.53;100080.19;3134847;28;19929;-72
2023/09/19 02:03:05;;;;;;;;;;;;;;;17.10;54.87;100089.78;3145791;28;20660;-72
2023/09/19 02:04:37;;;;;;;;;;;;;;;17.05;55.07;100090.94;3138323;28;19929;-72
2023/09/19 02:06:11;;;;;;;;;;;;;;;17.06;55.16;100089.97;3138222;28;19925;-72
2023/09/19 02:07:42;;;;;;;;;;;;;;;17.04;54.82;100091.88;3145650;28;20369;-72
2023/09/19 02:09:14;;;;;;;;;;;;;;;17.04;55.10;100093.69;3142151;28;20322;-72
2023/09/19 02:10:48;;;;;;;;;;;;;;;17.08;54.77;100083.78;3136240;28;20054;-72
2023/09/19 02:12:19;;;;;;;;;;;;;;;17.11;54.90;100087.03;3145543;28;19931;-72
2023/09/19 02:13:54;;;;;;;;;;;;;;;17.12;54.80;100093.16;3143627;28;19924;-73
2023/09/19 02:15:24;;;;;;;;;;;;;;;17.13;54.87;100081.69;3131897;28;20040;-72
2023/09/19 02:16:57;;;;;;;;;;;;;;;17.13;54.69;100082.53;3133003;28;19928;-72
2023/09/19 02:18:28;;;;;;;;;;;;;;;17.16;54.49;100081.47;3133073;28;19928;-72
2023/09/19 02:20:00;;;;;;;;;;;;;;;17.19;54.51;100078.66;3133292;28;20073;-72
2023/09/19 02:21:31;;;;;;;;;;;;;;;17.20;54.45;100075.06;3133369;28;20015;-72
2023/09/19 02:23:03;;;;;;;;;;;;;;;17.20;54.51;100075.88;3133367;28;20022;-73
2023/09/19 02:24:34;;;;;;;;;;;;;;;17.20;54.53;100077.69;3144630;28;20016;-71
2023/09/19 02:26:06;;;;;;;;;;;;;;;17.20;54.54;100072.41;3133179;28;19932;-71
2023/09/19 02:27:39;;;;;;;;;;;;;;;17.22;54.42;100076.63;3136641;28;19925;-71
2023/09/19 02:29:12;;;;;;;;;;;;;;;17.20;54.34;100064.53;3131696;28;20023;-70
2023/09/19 02:30:44;;;;;;;;;;;;;;;17.24;54.35;100072.13;3122830;28;19929;-73
2023/09/19 02:32:18;;;;;;;;;;;;;;;17.22;54.37;100073.16;3128601;28;19967;-73
2023/09/19 02:33:49;;;;;;;;;;;;;;;17.22;54.63;100079.28;3132730;28;19941;-71
2023/09/19 02:35:20;;;;;;;;;;;;;;;17.18;54.65;100075.16;3135978;28;20671;-71
2023/09/19 02:36:53;;;;;;;;;;;;;;;17.14;54.67;100076.31;3138709;28;20035;-72
2023/09/19 02:38:25;;;;;;;;;;;;;;;17.13;54.82;100072.00;3139141;28;19925;-71
2023/09/19 02:39:57;;;;;;;;;;;;;;;17.13;54.93;100073.81;3136990;28;20005;-69
2023/09/19 02:41:29;;;;;;;;;;;;;;;17.15;54.65;100077.16;3137403;28;20386;-68
2023/09/19 02:43:01;;;;;;;;;;;;;;;17.15;54.90;100071.88;3145416;28;19925;-69
2023/09/19 02:44:32;;;;;;;;;;;;;;;17.17;54.66;100072.63;3141426;28;20357;-69
2023/09/19 02:46:04;;;;;;;;;;;;;;;17.17;54.92;100081.38;3126615;28;19930;-68
2023/09/19 02:47:36;;;;;;;;;;;;;;;17.18;54.78;100075.16;3132922;28;19941;-69
2023/09/19 02:49:07;;;;;;;;;;;;;;;17.20;54.68;100075.88;3132982;28;19925;-69
2023/09/19 02:50:40;;;;;;;;;;;;;;;17.23;54.69;100082.75;3133420;28;19928;-69
2023/09/19 02:52:14;;;;;;;;;;;;;;;17.21;54.67;100076.72;3145278;28;20032;-69
2023/09/19 02:53:47;;;;;;;;;;;;;;;17.20;54.47;100075.88;3125541;28;19929;-69
2023/09/19 02:55:19;;;;;;;;;;;;;;;17.19;54.38;100076.00;3132701;28;20011;-69
2023/09/19 02:56:50;;;;;;;;;;;;;;;17.17;54.85;100072.63;3131229;28;19955;-69
2023/09/19 02:58:23;;;;;;;;;;;;;;;17.20;54.63;100069.78;3139866;28;19928;-69
2023/09/19 02:59:54;;;;;;;;;;;;;;;17.20;54.70;100075.88;3137519;28;19944;-69
2023/09/19 03:01:26;;;;;;;;;;;;;;;17.21;54.55;100076.72;3130308;28;19939;-69
2023/09/19 03:02:59;;;;;;;;;;;;;;;17.21;54.50;100071.47;3126673;28;19925;-69
2023/09/19 03:04:31;;;;;;;;;;;;;;;17.17;54.59;100072.63;3137462;28;20482;-69
2023/09/19 03:06:02;;;;;;;;;;;;;;;17.15;54.68;100075.34;3145190;28;19928;-69
2023/09/19 03:07:34;;;;;;;;;;;;;;;17.13;54.77;100071.16;3141826;28;19931;-69
2023/09/19 03:09:12;;;;;;;;;;;;;;;17.10;54.60;100071.38;3135092;28;19934;-69
2023/09/19 03:10:44;;;;;;;;;;;;;;;17.07;54.88;100075.06;3145042;28;19932;-69
2023/09/19 03:12:15;;;;;;;;;;;;;;;17.04;55.08;100076.09;3143434;28;19997;-69
2023/09/19 03:13:47;;;;;;;;;;;;;;;17.04;54.93;100075.25;3132729;28;20074;-68
2023/09/19 03:15:18;;;;;;;;;;;;;;;17.05;54.79;100074.31;3128760;28;20015;-68
2023/09/19 03:16:50;;;;;;;;;;;;;;;17.02;54.93;100067.47;3132906;28;19948;-69
2023/09/19 03:18:23;;;;;;;;;;;;;;;16.94;55.10;100069.75;3144693;28;20369;-69
2023/09/19 03:19:54;;;;;;;;;;;;;;;16.91;55.02;100071.75;3133852;28;19932;-69
2023/09/19 03:21:25;;;;;;;;;;;;;;;16.83;55.45;100067.88;3132779;28;19928;-69
2023/09/19 03:22:57;;;;;;;;;;;;;;;16.71;56.00;100060.75;3141752;28;19924;-69
2023/09/19 03:24:29;;;;;;;;;;;;;;;16.65;56.22;100062.94;3132445;28;20005;-69
2023/09/19 03:26:00;;;;;;;;;;;;;;;16.64;56.14;100071.78;3132851;28;20275;-69
2023/09/19 03:27:31;;;;;;;;;;;;;;;16.65;56.06;100069.03;3140127;28;19932;-69
2023/09/19 03:29:06;;;;;;;;;;;;;;;16.69;55.64;100064.44;3137202;28;19932;-70
2023/09/19 03:30:36;;;;;;;;;;;;;;;16.72;55.82;100058.97;3130481;28;19952;-71
2023/09/19 03:32:09;;;;;;;;;;;;;;;16.74;55.47;100062.31;3127960;28;19925;-70
2023/09/19 03:33:42;;;;;;;;;;;;;;;16.76;55.47;100065.72;3132637;28;19925;-71
2023/09/19 03:35:14;;;;;;;;;;;;;;;16.77;55.43;100063.03;3132855;28;19925;-71
2023/09/19 03:36:45;;;;;;;;;;;;;;;16.81;55.33;100067.13;3132875;28;19932;-71
2023/09/19 03:38:16;;;;;;;;;;;;;;;16.83;55.22;100067.03;3131997;28;20455;-71
2023/09/19 03:39:47;;;;;;;;;;;;;;;16.85;55.17;100066.91;3132455;28;19983;-71
2023/09/19 03:41:20;;;;;;;;;;;;;;;16.85;55.42;100070.38;3132963;28;19925;-71
2023/09/19 03:42:50;;;;;;;;;;;;;;;16.82;55.39;100068.78;3139523;28;19987;-72
2023/09/19 03:44:22;;;;;;;;;;;;;;;16.80;55.29;100070.69;3132671;28;20019;-72
2023/09/19 03:45:53;;;;;;;;;;;;;;;16.77;55.34;100070.91;3128810;28;19925;-70
2023/09/19 03:47:25;;;;;;;;;;;;;;;16.75;55.25;100069.28;3134109;28;19987;-70
2023/09/19 03:48:58;;;;;;;;;;;;;;;16.74;55.54;100070.22;3132301;28;19929;-70
2023/09/19 03:50:28;;;;;;;;;;;;;;;16.75;55.52;100071.91;3134870;28;19932;-69
2023/09/19 03:52:00;;;;;;;;;;;;;;;16.77;55.52;100075.31;3134171;28;20462;-69
2023/09/19 03:53:30;;;;;;;;;;;;;;;16.79;55.21;100073.41;3124255;28;19998;-74
2023/09/19 03:55:04;;;;;;;;;;;;;;;16.78;55.39;100074.38;3132654;28;20008;-73
2023/09/19 03:56:36;;;;;;;;;;;;;;;16.77;55.35;100070.03;3139773;28;20321;-74
2023/09/19 03:58:06;;;;;;;;;;;;;;;16.78;55.44;100069.13;3140124;28;20314;-76
2023/09/19 03:59:38;;;;;;;;;;;;;;;16.79;55.43;100066.38;3142522;28;19925;-74
2023/09/19 04:01:08;;;;;;;;;;;;;;;16.80;55.43;100075.09;3128934;28;19928;-73
2023/09/19 04:02:40;;;;;;;;;;;;;;;16.80;55.31;100078.59;3127328;28;19933;-75
2023/09/19 04:04:14;;;;;;;;;;;;;;;16.76;55.29;100073.63;3136090;28;19972;-71
2023/09/19 04:05:45;;;;;;;;;;;;;;;16.74;55.37;100080.72;3141566;28;20486;-75
2023/09/19 04:07:16;;;;;;;;;;;;;;;16.76;55.35;100084.16;3134637;28;20473;-74
2023/09/19 04:08:47;;;;;;;;;;;;;;;16.76;55.44;100078.88;3142426;28;19963;-75
2023/09/19 04:10:19;;;;;;;;;;;;;;;16.76;55.41;100076.25;3140900;28;19929;-71
2023/09/19 04:11:50;;;;;;;;;;;;;;;16.72;55.51;100070.31;3135293;28;19928;-72
2023/09/19 04:13:21;;;;;;;;;;;;;;;16.72;55.33;100077.38;3141334;28;20094;-73
2023/09/19 04:14:52;;;;;;;;;;;;;;;16.72;55.50;100080.00;3134372;28;19951;-75
2023/09/19 04:16:23;;;;;;;;;;;;;;;16.73;55.67;100081.69;3126199;28;19951;-67
2023/09/19 04:17:55;;;;;;;;;;;;;;;16.74;55.47;100083.38;3134652;28;19932;-71
2023/09/19 04:19:27;;;;;;;;;;;;;;;16.77;55.33;100083.19;3134367;28;19940;-75
2023/09/19 04:20:58;;;;;;;;;;;;;;;16.79;55.36;100078.69;3134461;28;20015;-73
2023/09/19 04:22:29;;;;;;;;;;;;;;;16.79;55.39;100083.94;3134667;28;19955;-72
2023/09/19 04:24:00;;;;;;;;;;;;;;;16.77;55.35;100078.81;3146607;28;19925;-72
2023/09/19 04:25:31;;;;;;;;;;;;;;;16.77;55.19;100076.16;3134579;28;19928;-74
2023/09/19 04:27:03;;;;;;;;;;;;;;;16.78;55.37;100079.63;3145541;28;19925;-74
2023/09/19 04:28:34;;;;;;;;;;;;;;;16.77;55.35;100077.94;3135968;28;20542;-71
2023/09/19 04:30:10;;;;;;;;;;;;;;;16.77;55.43;100081.44;3139672;28;19932;-75
2023/09/19 04:31:43;;;;;;;;;;;;;;;16.76;55.34;100071.84;3130953;28;19998;-72
2023/09/19 04:33:14;;;;;;;;;;;;;;;16.78;55.41;100077.00;3130605;28;19925;-74
2023/09/19 04:34:49;;;;;;;;;;;;;;;16.78;55.21;100079.63;3134559;28;19928;-72
2023/09/19 04:36:22;;;;;;;;;;;;;;;16.79;55.38;100084.78;3133566;28;20027;-74
2023/09/19 04:37:54;;;;;;;;;;;;;;;16.79;55.30;100081.31;3134070;28;19956;-72
2023/09/19 04:39:25;;;;;;;;;;;;;;;16.79;55.48;100082.16;3134086;28;19925;-73
2023/09/19 04:40:58;;;;;;;;;;;;;;;16.80;55.46;100088.25;3138887;28;19986;-75
2023/09/19 04:42:30;;;;;;;;;;;;;;;16.81;55.38;100082.91;3145372;28;19928;-73
2023/09/19 04:44:01;;;;;;;;;;;;;;;16.82;55.47;100078.47;3142637;28;19929;-73
2023/09/19 04:45:32;;;;;;;;;;;;;;;16.84;55.33;100087.13;3134047;28;19939;-74
2023/09/19 04:47:04;;;;;;;;;;;;;;;16.87;55.40;100078.19;3144424;28;19951;-72
2023/09/19 04:48:35;;;;;;;;;;;;;;;16.88;55.37;100079.84;3134113;28;20391;-73
2023/09/19 04:50:11;;;;;;;;;;;;;;;16.89;55.36;100076.28;3133635;28;20062;-71
2023/09/19 04:51:43;;;;;;;;;;;;;;;16.90;55.35;100078.81;3132797;28;19933;-76
2023/09/19 04:53:13;;;;;;;;;;;;;;;16.90;55.36;100078.81;3134787;28;19944;-78
2023/09/19 04:54:45;;;;;;;;;;;;;;;16.91;55.35;100077.84;3146045;28;19929;-76
2023/09/19 04:56:17;;;;;;;;;;;;;;;16.92;55.42;100076.94;3125806;28;19925;-72
2023/09/19 04:57:48;;;;;;;;;;;;;;;16.92;55.45;100071.66;3132093;28;20377;-72
2023/09/19 04:59:20;;;;;;;;;;;;;;;16.93;55.43;100075.97;3144479;28;19928;-72
2023/09/19 05:00:52;;;;;;;;;;;;;;;16.91;55.42;100075.22;3131834;28;20426;-73
2023/09/19 05:02:22;;;;;;;;;;;;;;;16.91;55.50;100069.13;3131080;28;20016;-73
2023/09/19 05:03:54;;;;;;;;;;;;;;;16.90;55.49;100068.28;3145112;28;20329;-72
2023/09/19 05:05:26;;;;;;;;;;;;;;;16.92;55.44;100076.94;3143892;28;19929;-73
2023/09/19 05:06:58;;;;;;;;;;;;;;;16.91;55.48;100075.22;3131388;28;19925;-73
2023/09/19 05:08:29;;;;;;;;;;;;;;;16.92;55.34;100066.41;3133457;28;20376;-74
2023/09/19 05:10:00;;;;;;;;;;;;;;;16.95;55.39;100071.47;3140352;28;20015;-72
2023/09/19 05:11:33;;;;;;;;;;;;;;;16.98;55.40;100073.88;3144026;28;19968;-73
2023/09/19 05:13:04;;;;;;;;;;;;;;;16.97;55.57;100073.97;3135519;28;20441;-71
2023/09/19 05:14:35;;;;;;;;;;;;;;;16.97;55.52;100079.22;3142682;28;20376;-74
2023/09/19 05:16:10;;;;;;;;;;;;;;;16.99;55.33;100082.63;3135191;28;20015;-73
2023/09/19 05:17:40;;;;;;;;;;;;;;;17.03;55.39;100077.03;3141160;28;19989;-72
2023/09/19 05:19:12;;;;;;;;;;;;;;;17.04;55.43;100078.72;3139294;28;20445;-73
2023/09/19 05:20:44;;;;;;;;;;;;;;;17.02;55.45;100077.97;3133798;28;19924;-72
2023/09/19 05:22:18;;;;;;;;;;;;;;;17.01;55.38;100081.56;3133520;28;20025;-75
2023/09/19 05:23:50;;;;;;;;;;;;;;;16.99;55.53;100080.81;3133556;28;19935;-75
2023/09/19 05:25:20;;;;;;;;;;;;;;;16.96;55.61;100081.03;3133070;28;19929;-75
2023/09/19 05:26:52;;;;;;;;;;;;;;;16.94;55.72;100084.72;3133982;28;20058;-74
2023/09/19 05:28:23;;;;;;;;;;;;;;;16.95;55.83;100079.34;3133203;28;19975;-74
2023/09/19 05:29:55;;;;;;;;;;;;;;;16.97;55.81;100081.88;3133062;28;20007;-74
2023/09/19 05:31:26;;;;;;;;;;;;;;;16.96;55.79;100074.94;3124472;28;19929;-71
2023/09/19 05:32:58;;;;;;;;;;;;;;;16.99;55.69;100085.25;3129416;28;20318;-71
2023/09/19 05:34:30;;;;;;;;;;;;;;;17.01;55.88;100080.72;3126429;28;19928;-73
2023/09/19 05:36:03;;;;;;;;;;;;;;;17.01;55.80;100086.84;3131179;28;19940;-72
2023/09/19 05:37:33;;;;;;;;;;;;;;;17.05;55.59;100088.28;3144013;28;19928;-74
2023/09/19 05:39:08;;;;;;;;;;;;;;;17.08;55.68;100083.78;3135231;28;19929;-73
2023/09/19 05:40:38;;;;;;;;;;;;;;;17.14;55.54;100091.25;3133226;28;20476;-73
2023/09/19 05:42:10;;;;;;;;;;;;;;;17.22;55.46;100088.97;3133471;28;19996;-73
2023/09/19 05:43:42;;;;;;;;;;;;;;;17.34;55.20;100096.00;3132942;28;20597;-74
2023/09/19 05:45:13;;;;;;;;;;;;;;;17.42;55.32;100087.56;3137573;28;19925;-73
2023/09/19 05:46:45;;;;;;;;;;;;;;;17.55;55.34;100095.47;3140022;28;19931;-73
2023/09/19 05:48:16;;;;;;;;;;;;;;;17.62;54.99;100094.94;3145606;28;19925;-73
2023/09/19 05:49:49;;;;;;;;;;;;;;;17.73;54.96;100100.28;3136748;28;19960;-73
2023/09/19 05:51:22;;;;;;;;;;;;;;;17.82;54.80;100096.22;3132920;28;20398;-73
2023/09/19 05:52:55;;;;;;;;;;;;;;;17.90;54.73;100096.50;3134939;28;19925;-73
2023/09/19 05:54:27;;;;;;;;;;;;;;;17.97;54.44;100096.91;3143489;28;19983;-73
2023/09/19 05:56:00;;;;;;;;;;;;;;;18.04;54.45;100092.88;3126502;28;19925;-74
2023/09/19 05:57:31;;;;;;;;;;;;;;;18.08;54.38;100093.53;3132930;28;19936;-74
2023/09/19 05:59:04;;;;;;;;;;;;;;;18.13;54.17;100096.66;3133484;28;20019;-73
2023/09/19 06:00:36;;;;;;;;;;;;;;;18.16;54.26;100091.16;3131644;28;19935;-72
2023/09/19 06:02:09;;;;;;;;;;;;;;;18.22;54.12;100090.75;3125765;28;19925;-74
2023/09/19 06:03:41;;;;;;;;;;;;;;;18.32;54.17;100081.19;3134121;28;19928;-73
2023/09/19 06:05:12;;;;;;;;;;;;;;;18.44;53.73;100079.47;3134878;28;19924;-73
2023/09/19 06:06:45;;;;;;;;;;;;;;;18.53;53.63;100072.66;3134778;28;19925;-78
2023/09/19 06:08:15;;;;;;;;;;;;;;;18.64;53.46;100073.56;3146488;28;20011;-77
2023/09/19 06:09:47;;;;;;;;;;;;;;;18.77;53.32;100070.88;3141776;28;20428;-77
2023/09/19 06:11:20;;;;;;;;;;;;;;;18.92;53.03;100063.59;3133387;28;20024;-77
2023/09/19 06:12:53;;;;;;;;;;;;;;;19.05;52.92;100067.00;3142217;28;20022;-79
2023/09/19 06:14:24;;;;;;;;;;;;;;;19.15;52.65;100067.13;3134243;28;19928;-75
2023/09/19 06:15:56;;;;;;;;;;;;;;;19.24;52.53;100069.06;3134200;28;19929;-75
2023/09/19 06:17:29;;;;;;;;;;;;;;;19.33;52.33;100063.06;3132624;28;19941;-75
2023/09/19 06:19:01;;;;;;;;;;;;;;;19.44;52.27;100064.03;3141556;28;19932;-74
2023/09/19 06:20:32;;;;;;;;;;;;;;;19.54;52.13;100070.28;3132851;28;19932;-73
2023/09/19 06:22:06;;;;;;;;;;;;;;;19.60;52.09;100069.78;3132801;28;20025;-75
2023/09/19 06:23:49;;;;;;;;;;;;;;;19.69;51.78;100069.09;3132611;28;20354;-74
2023/09/19 06:25:28;;;;;;;;;;;;;;;19.65;51.47;100070.31;3140319;28;19971;-73
2023/09/19 06:27:26;;;;;;;;;;;;;;;19.60;51.73;100069.78;3135580;28;19928;-73
2023/09/19 06:28:57;;;;;;;;;;;;;;;19.68;51.82;100074.50;3141875;28;19963;-75
2023/09/19 06:30:39;;;;;;;;;;;;;;;19.74;51.59;100072.22;3133450;28;20019;-74
2023/09/19 06:32:23;;;;;;;;;;;;;;;19.79;51.53;100069.22;3131759;28;19929;-72
2023/09/19 06:38:07;;;;;;;;;;;;;;;20.11;51.53;100057.84;3102631;28;19935;-75
2023/09/19 06:39:38;;;;;;;;;;;;;;;20.19;51.94;100064.22;3136672;28;19928;-73
2023/09/19 06:43:18;;;;;;;;;;;;;;;20.88;51.73;100061.22;3142821;28;19932;-70
2023/09/19 06:44:48;;;;;;;;;;;;;;;21.27;51.39;100052.66;3135871;28;20339;-71
2023/09/19 06:46:20;;;;;;;;;;;;;;;21.73;50.97;100053.97;3132511;28;20063;-72
2023/09/19 06:47:51;;;;;;;;;;;;;;;22.20;50.55;100057.75;3128101;28;19991;-68
2023/09/19 06:49:23;;;;;;;;;;;;;;;22.60;49.97;100056.78;3139065;28;20019;-74
2023/09/19 06:50:54;;;;;;;;;;;;;;;22.84;49.60;100058.19;3137090;28;19924;-73
2023/09/19 06:52:27;;;;;;;;;;;;;;;23.02;49.18;100056.50;3138742;28;19935;-74
2023/09/19 06:54:01;;;;;;;;;;;;;;;23.28;49.12;100054.06;3127697;28;20028;-71
2023/09/19 06:55:36;;;;;;;;;;;;;;;23.52;48.73;100050.03;3138659;28;19928;-73
2023/09/19 06:57:09;;;;;;;;;;;;;;;23.77;48.52;100049.38;3138508;28;20372;-71
2023/09/19 06:58:43;;;;;;;;;;;;;;;24.05;47.74;100054.69;3142902;28;19932;-72
2023/09/19 07:00:18;;;;;;;;;;;;;;;24.22;47.48;100042.38;3134140;28;19925;-72
2023/09/19 07:01:50;;;;;;;;;;;;;;;24.33;46.79;100051.97;3126859;28;19929;-71
2023/09/19 07:03:25;;;;;;;;;;;;;;;24.06;46.80;100043.06;3129055;28;19929;-74
2023/09/19 07:04:56;;;;;;;;;;;;;;;23.86;47.00;100049.47;3136286;28;19928;-71
2023/09/19 07:06:28;;;;;;;;;;;;;;;23.72;46.92;100045.47;3136995;28;20425;-73
2023/09/19 07:07:59;;;;;;;;;;;;;;;23.69;46.85;100043.91;3132437;28;19924;-72
2023/09/19 07:09:32;;;;;;;;;;;;;;;23.70;47.07;100045.66;3131639;28;20463;-71
2023/09/19 07:11:06;;;;;;;;;;;;;;;24.07;46.72;100040.22;3143036;28;19924;-73
2023/09/19 07:12:36;;;;;;;;;;;;;;;24.51;46.25;100045.66;3144672;28;19925;-75
2023/09/19 07:14:11;;;;;;;;;;;;;;;24.86;45.63;100045.78;3135664;28;19925;-74
2023/09/19 07:15:46;;;;;;;;;;;;;;;24.93;45.24;100042.34;3125213;28;19945;-78
2023/09/19 07:17:18;;;;;;;;;;;;;;;25.13;45.03;100045.66;3135697;28;19932;-77
2023/09/19 07:18:52;;;;;;;;;;;;;;;25.33;44.70;100046.28;3138104;28;19935;-76
2023/09/19 07:20:26;;;;;;;;;;;;;;;25.52;44.85;100036.38;3131944;28;19925;-76
2023/09/19 07:21:59;;;;;;;;;;;;;;;25.60;44.11;100044.41;3131926;28;20406;-71
2023/09/19 07:23:29;;;;;;;;;;;;;;;25.42;43.68;100041.84;3132182;28;20540;-74
2023/09/19 07:25:03;;;;;;;;;;;;;;;25.45;43.86;100041.50;3132895;28;19929;-73
2023/09/19 07:26:35;;;;;;;;;;;;;;;25.69;44.03;100042.63;3132115;28;19928;-74
2023/09/19 07:28:05;;;;;;;;;;;;;;;26.11;42.99;100039.91;3132672;28;19929;-74
2023/09/19 07:29:38;;;;;;;;;;;;;;;26.40;41.67;100038.63;3134601;28;20409;-74
2023/09/19 07:31:14;;;;;;;;;;;;;;;26.49;40.95;100035.81;3135361;28;19960;-74
2023/09/19 07:32:45;;;;;;;;;;;;;;;26.78;41.13;100039.84;3134095;28;20413;-74
2023/09/19 07:34:16;;;;;;;;;;;;;;;27.15;40.81;100041.13;3134045;28;19929;-74
2023/09/19 07:35:48;;;;;;;;;;;;;;;27.48;40.21;100049.06;3136277;28;20050;-72
2023/09/19 07:37:25;;;;;;;;;;;;;;;27.45;39.48;100042.25;3143034;28;19925;-77
2023/09/19 07:38:57;;;;;;;;;;;;;;;27.37;40.12;100035.06;3136461;28;20394;-77
2023/09/19 07:40:30;;;;;;;;;;;;;;;27.47;40.32;100031.34;3136527;28;20409;-76
2023/09/19 07:42:01;;;;;;;;;;;;;;;27.79;40.02;100025.88;3134301;28;20318;-77
2023/09/19 07:43:33;;;;;;;;;;;;;;;28.26;39.31;100021.41;3130787;28;19929;-75
2023/09/19 07:45:05;;;;;;;;;;;;;;;28.65;37.93;100018.59;3143561;28;19924;-74
2023/09/19 07:46:36;;;;;;;;;;;;;;;28.96;37.87;100014.97;3134891;28;19942;-73
2023/09/19 07:48:14;;;;;;;;;;;;;;;29.44;37.92;100010.09;3135341;28;19936;-73
2023/09/19 07:49:47;;;;;;;;;;;;;;;30.00;37.24;100015.75;3131883;28;20325;-73
2023/09/19 07:51:19;;;;;;;;;;;;;;;30.48;35.92;100010.66;3134496;28;19925;-73
2023/09/19 07:52:53;;;;;;;;;;;;;;;30.51;34.88;100015.63;3130981;28;20378;-74
2023/09/19 07:54:25;;;;;;;;;;;;;;;30.56;34.94;100007.00;3132713;28;19946;-73
2023/09/19 07:56:03;;;;;;;;;;;;;;;30.57;34.43;100005.97;3141150;28;19987;-75
2023/09/19 07:57:35;;;;;;;;;;;;;;;30.53;34.68;100007.41;3135119;28;20126;-75
2023/09/19 07:59:06;;;;;;;;;;;;;;;30.57;34.10;100011.34;3131556;28;20351;-74
2023/09/19 08:00:38;;;;;;;;;;;;;;;30.57;33.92;100003.28;3136437;28;19981;-76
2023/09/19 08:02:15;;;;;;;;;;;;;;;30.28;33.52;99998.91;3146828;28;19928;-76